Home   Weather   Turkey   Side   Past weeks
Flag for Turkey

Past Weather in Side, Turkey — Yesterday and Last 2 Weeks

Currently: 84 °F. Passing clouds. (Weather station: Antalya Airport, Turkey). See more current weather

Past Weather in Side — Graph

°F

Side Temperature Yesterday

Maximum temperature yesterday: 72 °F (at 9:50 am)
Minimum temperature yesterday: 59 °F (at 2:50 am)
Average temperature yesterday: 65 °F

High & Low Weather Summary for the Past Weeks

 TemperatureHumidityPressure
High84 °F (Apr 13, 1:20 pm)100% (Apr 3, 8:50 pm)30.15 "Hg (Apr 3, 8:50 pm)
Low54 °F (Mar 30, 5:50 am)18% (Apr 6, 2:20 pm)29.71 "Hg (Apr 7, 3:20 pm)
Average67 °F63%29.95 "Hg
* Reported Mar 29 1:20 pm — Apr 13 1:20 pm, Side. Weather by CustomWeather, © 2024

Note: Actual official high and low records may vary slightly from our data, if they occured in-between our weather recording intervals... More about our weather records

Side Weather History for the Previous 24 Hours

Scroll right to see more
 ConditionsComfort  
Time TempWeatherWind HumidityBarometerVisibility
1:20 pm
Sat, Apr 13
84 °FPassing clouds.2 mph29%29.95 "HgN/A
12:50 pm82 °FPassing clouds.2 mph30%29.95 "HgN/A
12:20 pm82 °FPassing clouds.3 mph30%29.98 "HgN/A
11:50 am81 °FPassing clouds.7 mph32%29.98 "HgN/A
11:20 am79 °FPassing clouds.7 mph34%29.98 "HgN/A
10:50 am77 °FPassing clouds.10 mph36%30.01 "HgN/A
9:50 am75 °FSunny.15 mph41%30.01 "Hg10 mi
9:20 am73 °FSunny.14 mph44%30.01 "Hg10 mi
8:50 am72 °FSunny.12 mph47%30.01 "Hg10 mi
8:20 am70 °FSunny.13 mph50%30.01 "Hg10 mi
7:50 am68 °FSunny.12 mph53%30.01 "Hg10 mi
7:20 am64 °FSunny.6 mph60%30.01 "Hg10 mi
6:50 am63 °FSunny.7 mph64%30.01 "Hg10 mi
6:20 am64 °FPassing clouds.6 mph60%29.98 "HgN/A
5:50 am63 °FClear.7 mph68%29.98 "Hg10 mi
5:20 am63 °FClear.10 mph73%29.98 "Hg10 mi
4:50 am61 °FClear.7 mph83%29.98 "Hg10 mi
3:50 am61 °FPassing clouds.5 mph100%30.01 "Hg5 mi
2:50 am61 °FPassing clouds.2 mph100%30.01 "Hg4 mi
2:20 am63 °FPassing clouds.5 mph100%30.01 "Hg5 mi
1:50 am63 °FPassing clouds.5 mph100%30.01 "Hg4 mi
1:20 am63 °FPassing clouds.2 mph100%30.01 "Hg6 mi
12:50 am64 °FFog.2 mph100%30.01 "Hg6 mi
12:20 am64 °FPassing clouds.1 mph100%30.01 "HgN/A
11:50 pm
Fri, Apr 12
64 °FPassing clouds.3 mph100%30.01 "HgN/A
11:20 pm64 °FPassing clouds.1 mph100%30.01 "HgN/A
10:50 pm64 °FPassing clouds.3 mph100%30.01 "HgN/A
10:20 pm66 °FPassing clouds.1 mph94%30.01 "HgN/A
9:50 pm64 °FPassing clouds.3 mph100%30.01 "HgN/A
9:20 pm64 °FPassing clouds.5 mph100%30.01 "HgN/A
8:50 pm64 °FPassing clouds.3 mph100%30.01 "HgN/A
8:20 pm66 °FPassing clouds.2 mph94%30.01 "HgN/A
7:50 pm66 °FPassing clouds.No wind88%30.01 "HgN/A
6:50 pm68 °FScattered clouds.5 mph83%30.01 "HgN/A
6:20 pm68 °FScattered clouds.5 mph83%30.01 "HgN/A
5:50 pm68 °FBroken clouds.6 mph83%30.01 "HgN/A
4:50 pm68 °FBroken clouds.6 mph83%30.01 "HgN/A
4:20 pm68 °FBroken clouds.8 mph83%30.01 "HgN/A
3:50 pm68 °FBroken clouds.8 mph78%30.01 "HgN/A
Weather by CustomWeather, © 2024

See weather overview